»·PEaware :: N721B KBUR-KFUL

N721B :: KBUR-KFUL

FLIGHT INFORMATION

Flight Status: Arrived
Operator: Privately registered:
United States
More flights under this callsign
Pilot: Matt H. (28488)
Aircraft: CESSNA 172 SKYHAWK
(C172)
More flights by this aircraft type
Origin: KBUR Bob Hope-Burbank
United States
Destination: KFUL Fullerton Mun
United States
More flights between these airports :: More routes between these airports
Route:
File this flight plan on PilotEdge
Remarks:
Altitude:
(Current/Filed)
3,500ft
Speed:
(Current/Filed)
100kts
Departed: 02-May-20 06:30 PM
Arrived: 02-May-20 06:58 PM
Distance/Time
Traveled:
27nm/0:28
Distance/Time
To Go:
Arrived

Flight Plot

Page will automatically refresh every two minutes.


Map Options




Map Legend


Flown Route
Filed Route
Departure Airport
Arrival Airport
Navaid (VOR, NDB)
Fix

Horizontal Profiles

Position Reports

Time Latitude Longitude Heading Altitude Ground
Speed
02-May-20 18:06 34.200258 -118.362797 220 738ft 0kts
02-May-20 18:07 34.200258 -118.362797 220 738ft 0kts
02-May-20 18:08 34.200258 -118.362797 220 738ft 0kts
02-May-20 18:09 34.200258 -118.362797 220 738ft 0kts
02-May-20 18:10 34.200258 -118.362797 220 738ft 0kts
02-May-20 18:11 34.200258 -118.362797 220 738ft 0kts
02-May-20 18:12 34.200258 -118.362797 220 738ft 0kts
02-May-20 18:13 34.200258 -118.362797 220 738ft 0kts
02-May-20 18:14 34.200258 -118.362797 220 738ft 0kts
02-May-20 18:15 34.200258 -118.362797 220 738ft 0kts
02-May-20 18:16 34.200258 -118.362797 220 738ft 0kts
02-May-20 18:17 34.200258 -118.362797 220 738ft 0kts
02-May-20 18:18 34.200258 -118.362797 220 738ft 0kts
02-May-20 18:19 34.200258 -118.362797 220 738ft 0kts
02-May-20 18:20 34.200258 -118.362797 220 738ft 0kts
02-May-20 18:21 34.200258 -118.362797 220 738ft 0kts
02-May-20 18:22 34.199959 -118.364491 205 738ft 6kts
02-May-20 18:23 34.199093 -118.366633 273 738ft 19kts
02-May-20 18:24 34.198737 -118.369001 179 738ft 0kts
02-May-20 18:25 34.198737 -118.369001 180 738ft 0kts
02-May-20 18:26 34.198737 -118.369001 180 738ft 0kts
02-May-20 18:27 34.198737 -118.369001 180 738ft 0kts
02-May-20 18:28 34.197907 -118.368033 86 738ft 7kts
02-May-20 18:29 34.197911 -118.361403 93 894ft 58kts
02-May-20 18:30 34.197683 -118.338359 102 1632ft 76kts
02-May-20 18:32 34.188722 -118.310319 107 2075ft 102kts
02-May-20 18:33 34.183445 -118.275634 107 2443ft 110kts
02-May-20 18:34 34.176727 -118.241682 108 3035ft 100kts
02-May-20 18:35 34.169780 -118.208235 110 3398ft 109kts
02-May-20 18:36 34.162739 -118.174182 110 3497ft 102kts
02-May-20 18:37 34.148358 -118.144781 127 3508ft 101kts
02-May-20 18:38 34.132149 -118.115837 129 3499ft 106kts
02-May-20 18:39 34.115241 -118.086003 129 3498ft 109kts
02-May-20 18:40 34.097884 -118.055363 129 3499ft 112kts
02-May-20 18:41 34.076888 -118.028510 151 3498ft 109kts
02-May-20 18:42 34.051247 -118.009045 153 3499ft 108kts
02-May-20 18:43 34.025411 -117.990006 153 3499ft 108kts
02-May-20 18:44 33.999515 -117.970974 153 3499ft 109kts
02-May-20 18:45 33.973553 -117.951890 153 3499ft 109kts
02-May-20 18:46 33.947739 -117.932929 153 3496ft 109kts
02-May-20 18:47 33.921852 -117.913980 153 3498ft 107kts
02-May-20 18:48 33.896485 -117.895381 152 3500ft 106kts
02-May-20 18:48 33.880490 -117.907645 256 3066ft 102kts
02-May-20 18:49 33.876729 -117.941329 266 2288ft 101kts
02-May-20 18:51 33.872186 -117.979343 252 508ft 103kts
02-May-20 18:51 33.868027 -118.005657 258 914ft 107kts
02-May-20 18:52 33.889721 -118.015712 60 1181ft 122kts
02-May-20 18:53 33.902925 -117.975904 71 1199ft 130kts
02-May-20 18:54 33.899496 -117.941893 177 1193ft 107kts
02-May-20 18:55 33.878826 -117.950063 241 860ft 77kts
02-May-20 18:56 33.873013 -117.974888 252 129ft 76kts
02-May-20 18:57 33.871595 -117.983427 341 95ft 0kts
02-May-20 18:58 33.871727 -117.983473 344 95ft 0kts
02-May-20 18:59 33.871727 -117.983473 344 95ft 0kts
02-May-20 19:00 33.871727 -117.983473 344 95ft 0kts

Navigation Log

Ident Type
Flight plan parsing failed, navigation log unavailable